sensor_id;sensor_type;location;lat;lon;timestamp;pressure;altitude;pressure_sealevel;temperature;humidity
72721;BME280;60835;50.974;10.322;2022-09-09T00:08:53;97710.34;;;15.29;100.00
72721;BME280;60835;50.974;10.322;2022-09-09T00:11:29;97697.84;;;15.29;100.00
72721;BME280;60835;50.974;10.322;2022-09-09T00:13:58;97692.50;;;15.22;100.00
72721;BME280;60835;50.974;10.322;2022-09-09T00:16:32;97691.31;;;15.32;100.00
72721;BME280;60835;50.974;10.322;2022-09-09T00:22:19;97679.38;;;15.27;100.00
72721;BME280;60835;50.974;10.322;2022-09-09T00:24:51;97671.81;;;15.31;100.00
72721;BME280;60835;50.974;10.322;2022-09-09T00:30:17;97671.19;;;15.22;100.00
72721;BME280;60835;50.974;10.322;2022-09-09T00:32:47;97662.16;;;15.17;100.00
72721;BME280;60835;50.974;10.322;2022-09-09T00:35:30;97664.44;;;15.27;100.00
72721;BME280;60835;50.974;10.322;2022-09-09T00:38:03;97672.66;;;15.32;100.00
72721;BME280;60835;50.974;10.322;2022-09-09T00:40:34;97671.22;;;15.42;100.00
72721;BME280;60835;50.974;10.322;2022-09-09T00:46:05;97699.16;;;15.53;100.00
72721;BME280;60835;50.974;10.322;2022-09-09T00:48:47;97707.38;;;15.58;100.00
72721;BME280;60835;50.974;10.322;2022-09-09T00:54:28;97730.94;;;15.67;100.00
72721;BME280;60835;50.974;10.322;2022-09-09T00:57:09;97739.19;;;15.79;100.00
72721;BME280;60835;50.974;10.322;2022-09-09T00:59:46;97746.56;;;15.70;100.00
72721;BME280;60835;50.974;10.322;2022-09-09T01:07:49;97734.47;;;15.74;100.00
72721;BME280;60835;50.974;10.322;2022-09-09T01:11:14;97747.81;;;15.88;100.00
72721;BME280;60835;50.974;10.322;2022-09-09T01:13:34;97746.34;;;15.78;100.00
72721;BME280;60835;50.974;10.322;2022-09-09T01:16:04;97747.19;;;15.79;100.00
72721;BME280;60835;50.974;10.322;2022-09-09T01:18:34;97750.88;;;15.78;100.00
72721;BME280;60835;50.974;10.322;2022-09-09T01:23:53;97744.34;;;15.80;100.00
72721;BME280;60835;50.974;10.322;2022-09-09T01:26:28;97747.19;;;15.79;100.00
72721;BME280;60835;50.974;10.322;2022-09-09T01:28:56;97752.09;;;15.89;100.00
72721;BME280;60835;50.974;10.322;2022-09-09T01:31:28;97737.75;;;15.70;100.00
72721;BME280;60835;50.974;10.322;2022-09-09T01:33:56;97742.69;;;15.93;100.00
72721;BME280;60835;50.974;10.322;2022-09-09T01:36:37;97745.16;;;15.88;100.00
72721;BME280;60835;50.974;10.322;2022-09-09T01:39:05;97762.78;;;15.89;100.00
72721;BME280;60835;50.974;10.322;2022-09-09T01:41:31;97752.53;;;15.92;100.00
72721;BME280;60835;50.974;10.322;2022-09-09T01:43:58;97760.16;;;16.02;100.00
72721;BME280;60835;50.974;10.322;2022-09-09T01:46:24;97768.75;;;16.17;100.00
72721;BME280;60835;50.974;10.322;2022-09-09T01:48:52;97779.63;;;16.15;100.00
72721;BME280;60835;50.974;10.322;2022-09-09T01:51:19;97794.84;;;16.28;100.00
72721;BME280;60835;50.974;10.322;2022-09-09T01:53:46;97794.00;;;16.27;100.00
72721;BME280;60835;50.974;10.322;2022-09-09T02:04:42;97807.34;;;16.34;100.00
72721;BME280;60835;50.974;10.322;2022-09-09T02:10:09;97811.25;;;16.51;100.00
72721;BME280;60835;50.974;10.322;2022-09-09T02:12:45;97821.94;;;16.51;100.00
72721;BME280;60835;50.974;10.322;2022-09-09T02:15:26;97821.50;;;16.48;100.00
72721;BME280;60835;50.974;10.322;2022-09-09T02:17:56;97823.78;;;16.51;100.00
72721;BME280;60835;50.974;10.322;2022-09-09T02:20:23;97836.31;;;16.63;100.00
72721;BME280;60835;50.974;10.322;2022-09-09T02:22:53;97843.91;;;16.66;100.00
72721;BME280;60835;50.974;10.322;2022-09-09T02:25:24;97849.88;;;16.68;100.00
72721;BME280;60835;50.974;10.322;2022-09-09T02:27:52;97846.59;;;16.53;100.00
72721;BME280;60835;50.974;10.322;2022-09-09T02:30:19;97840.63;;;16.71;100.00
72721;BME280;60835;50.974;10.322;2022-09-09T02:32:48;97851.50;;;16.63;100.00
72721;BME280;60835;50.974;10.322;2022-09-09T02:35:20;97847.84;;;16.57;100.00
72721;BME280;60835;50.974;10.322;2022-09-09T02:37:52;97852.34;;;16.63;100.00
72721;BME280;60835;50.974;10.322;2022-09-09T02:40:20;97853.38;;;16.62;100.00
72721;BME280;60835;50.974;10.322;2022-09-09T02:42:48;97855.22;;;16.68;100.00
72721;BME280;60835;50.974;10.322;2022-09-09T02:45:19;97851.50;;;16.63;100.00
72721;BME280;60835;50.974;10.322;2022-09-09T02:48:12;97841.69;;;16.57;100.00
72721;BME280;60835;50.974;10.322;2022-09-09T02:53:21;97834.06;;;16.60;100.00
72721;BME280;60835;50.974;10.322;2022-09-09T02:56:09;97838.59;;;16.53;100.00
72721;BME280;60835;50.974;10.322;2022-09-09T02:58:38;97828.50;;;16.49;100.00
72721;BME280;60835;50.974;10.322;2022-09-09T03:01:05;97833.84;;;16.55;100.00
72721;BME280;60835;50.974;10.322;2022-09-09T03:03:32;97834.25;;;16.45;100.00
72721;BME280;60835;50.974;10.322;2022-09-09T03:05:59;97829.53;;;16.48;100.00
72721;BME280;60835;50.974;10.322;2022-09-09T03:08:25;97847.44;;;16.54;100.00
72721;BME280;60835;50.974;10.322;2022-09-09T03:10:54;97834.22;;;16.52;100.00
72721;BME280;60835;50.974;10.322;2022-09-09T03:13:21;97818.66;;;16.36;100.00
72721;BME280;60835;50.974;10.322;2022-09-09T03:15:48;97759.72;;;16.24;100.00
72721;BME280;60835;50.974;10.322;2022-09-09T03:18:14;97723.41;;;16.04;100.00
72721;BME280;60835;50.974;10.322;2022-09-09T03:20:41;97670.88;;;15.98;100.00
72721;BME280;60835;50.974;10.322;2022-09-09T03:33:24;97568.75;;;15.64;100.00
72721;BME280;60835;50.974;10.322;2022-09-09T03:35:50;97554.38;;;15.65;100.00
72721;BME280;60835;50.974;10.322;2022-09-09T03:38:17;97533.06;;;15.52;100.00
72721;BME280;60835;50.974;10.322;2022-09-09T03:40:54;97524.47;;;15.50;100.00
72721;BME280;60835;50.974;10.322;2022-09-09T03:43:24;97511.53;;;15.47;100.00
72721;BME280;60835;50.974;10.322;2022-09-09T03:45:52;97502.28;;;15.43;100.00
72721;BME280;60835;50.974;10.322;2022-09-09T03:48:19;97495.31;;;15.36;100.00
72721;BME280;60835;50.974;10.322;2022-09-09T03:50:47;97487.13;;;15.37;100.00
72721;BME280;60835;50.974;10.322;2022-09-09T03:53:14;97471.78;;;15.33;100.00
72721;BME280;60835;50.974;10.322;2022-09-09T03:55:46;97465.81;;;15.31;100.00
72721;BME280;60835;50.974;10.322;2022-09-09T03:58:13;97463.16;;;15.24;100.00
72721;BME280;60835;50.974;10.322;2022-09-09T04:00:40;97464.38;;;15.15;100.00
72721;BME280;60835;50.974;10.322;2022-09-09T04:03:11;97462.13;;;15.12;100.00
72721;BME280;60835;50.974;10.322;2022-09-09T04:05:41;97448.00;;;15.05;100.00
72721;BME280;60835;50.974;10.322;2022-09-09T04:08:08;97448.03;;;14.98;100.00
72721;BME280;60835;50.974;10.322;2022-09-09T04:10:35;97443.31;;;14.94;100.00
72721;BME280;60835;50.974;10.322;2022-09-09T04:13:05;97437.56;;;14.84;100.00
72721;BME280;60835;50.974;10.322;2022-09-09T04:15:31;97426.09;;;14.83;100.00
72721;BME280;60835;50.974;10.322;2022-09-09T04:17:58;97422.81;;;14.81;100.00
72721;BME280;60835;50.974;10.322;2022-09-09T04:20:24;97417.09;;;14.78;100.00
72721;BME280;60835;50.974;10.322;2022-09-09T04:22:51;97418.31;;;14.82;100.00
72721;BME280;60835;50.974;10.322;2022-09-09T04:25:17;97424.66;;;14.81;100.00
72721;BME280;60835;50.974;10.322;2022-09-09T04:27:44;97432.44;;;14.76;100.00
72721;BME280;60835;50.974;10.322;2022-09-09T04:30:10;97413.41;;;14.66;100.00
72721;BME280;60835;50.974;10.322;2022-09-09T04:32:38;97430.22;;;14.79;100.00
72721;BME280;60835;50.974;10.322;2022-09-09T04:35:04;97444.53;;;14.78;100.00
72721;BME280;60835;50.974;10.322;2022-09-09T04:37:31;97443.31;;;14.81;100.00
72721;BME280;60835;50.974;10.322;2022-09-09T04:39:57;97453.13;;;14.93;100.00
72721;BME280;60835;50.974;10.322;2022-09-09T04:42:25;97457.22;;;14.83;100.00
72721;BME280;60835;50.974;10.322;2022-09-09T04:44:52;97462.97;;;14.80;100.00
72721;BME280;60835;50.974;10.322;2022-09-09T04:47:18;97470.34;;;14.78;100.00
72721;BME280;60835;50.974;10.322;2022-09-09T04:49:44;97469.53;;;14.77;100.00
72721;BME280;60835;50.974;10.322;2022-09-09T04:52:11;97471.19;;;14.85;100.00
72721;BME280;60835;50.974;10.322;2022-09-09T04:54:37;97471.16;;;14.78;100.00
72721;BME280;60835;50.974;10.322;2022-09-09T04:57:05;97462.13;;;14.73;100.00
72721;BME280;60835;50.974;10.322;2022-09-09T04:59:31;97471.16;;;14.78;100.00
72721;BME280;60835;50.974;10.322;2022-09-09T05:01:57;97472.59;;;14.81;100.00
72721;BME280;60835;50.974;10.322;2022-09-09T05:04:24;97473.00;;;14.78;100.00
72721;BME280;60835;50.974;10.322;2022-09-09T05:06:51;97471.56;;;14.82;100.00
72721;BME280;60835;50.974;10.322;2022-09-09T05:09:17;97476.09;;;14.88;100.00
72721;BME280;60835;50.974;10.322;2022-09-09T05:11:43;97471.16;;;14.91;100.00
72721;BME280;60835;50.974;10.322;2022-09-09T05:14:10;97474.44;;;14.87;100.00
72721;BME280;60835;50.974;10.322;2022-09-09T05:16:38;97488.78;;;14.86;100.00
72721;BME280;60835;50.974;10.322;2022-09-09T05:19:04;97492.06;;;14.81;100.00
72721;BME280;60835;50.974;10.322;2022-09-09T05:21:31;97481.63;;;14.80;100.00
72721;BME280;60835;50.974;10.322;2022-09-09T05:23:57;97460.53;;;14.72;100.00
72721;BME280;60835;50.974;10.322;2022-09-09T05:26:24;97471.78;;;14.87;100.00
72721;BME280;60835;50.974;10.322;2022-09-09T05:28:50;97471.78;;;14.87;100.00
72721;BME280;60835;50.974;10.322;2022-09-09T05:31:18;97469.53;;;14.84;100.00
72721;BME280;60835;50.974;10.322;2022-09-09T05:33:46;97478.31;;;14.91;100.00
72721;BME280;60835;50.974;10.322;2022-09-09T05:36:19;97477.72;;;14.89;100.00
72721;BME280;60835;50.974;10.322;2022-09-09T05:38:46;97476.72;;;14.90;100.00
72721;BME280;60835;50.974;10.322;2022-09-09T05:41:14;97478.53;;;14.96;100.00
72721;BME280;60835;50.974;10.322;2022-09-09T05:43:44;97488.78;;;14.92;100.00
72721;BME280;60835;50.974;10.322;2022-09-09T05:46:19;97489.63;;;14.93;100.00
72721;BME280;60835;50.974;10.322;2022-09-09T05:48:47;97489.19;;;14.96;100.00
72721;BME280;60835;50.974;10.322;2022-09-09T05:51:16;97495.34;;;15.03;100.00
72721;BME280;60835;50.974;10.322;2022-09-09T05:53:45;97503.13;;;15.11;100.00
72721;BME280;60835;50.974;10.322;2022-09-09T05:56:19;97509.47;;;15.23;100.00
72721;BME280;60835;50.974;10.322;2022-09-09T05:58:49;97526.69;;;15.40;100.00
72721;BME280;60835;50.974;10.322;2022-09-09T06:01:27;97530.19;;;15.47;100.00
72721;BME280;60835;50.974;10.322;2022-09-09T06:03:55;97548.22;;;15.58;100.00
72721;BME280;60835;50.974;10.322;2022-09-09T06:06:26;97569.53;;;15.65;100.00
72721;BME280;60835;50.974;10.322;2022-09-09T06:08:55;97580.84;;;15.54;100.00
72721;BME280;60835;50.974;10.322;2022-09-09T06:11:26;97581.06;;;15.59;100.00
72721;BME280;60835;50.974;10.322;2022-09-09T06:13:53;97578.16;;;15.60;100.00
72721;BME280;60835;50.974;10.322;2022-09-09T06:16:22;97585.34;;;15.53;100.00
72721;BME280;60835;50.974;10.322;2022-09-09T06:18:50;97585.34;;;15.53;100.00
72721;BME280;60835;50.974;10.322;2022-09-09T06:21:29;97591.69;;;15.52;100.00
72721;BME280;60835;50.974;10.322;2022-09-09T06:23:56;97599.09;;;15.63;100.00
72721;BME280;60835;50.974;10.322;2022-09-09T06:26:34;97606.66;;;15.79;100.00
72721;BME280;60835;50.974;10.322;2022-09-09T06:29:02;97637.19;;;15.97;100.00
72721;BME280;60835;50.974;10.322;2022-09-09T06:31:32;97649.03;;;16.40;100.00
72721;BME280;60835;50.974;10.322;2022-09-09T06:34:01;97703.59;;;16.70;100.00
72721;BME280;60835;50.974;10.322;2022-09-09T06:36:32;97736.13;;;17.56;100.00
72721;BME280;60835;50.974;10.322;2022-09-09T06:38:59;97805.81;;;17.10;100.00
72721;BME280;60835;50.974;10.322;2022-09-09T06:41:28;97799.47;;;16.98;100.00
72721;BME280;60835;50.974;10.322;2022-09-09T06:43:56;97796.91;;;16.65;100.00
72721;BME280;60835;50.974;10.322;2022-09-09T06:46:24;97791.38;;;17.24;100.00
72721;BME280;60835;50.974;10.322;2022-09-09T06:48:55;97801.22;;;16.53;100.00
72721;BME280;60835;50.974;10.322;2022-09-09T06:51:25;97789.50;;;16.67;100.00
72721;BME280;60835;50.974;10.322;2022-09-09T06:53:53;97796.88;;;16.78;100.00
72721;BME280;60835;50.974;10.322;2022-09-09T06:56:28;97804.66;;;16.80;100.00
72721;BME280;60835;50.974;10.322;2022-09-09T06:58:56;97796.00;;;16.84;100.00
72721;BME280;60835;50.974;10.322;2022-09-09T07:01:26;97799.53;;;16.78;100.00
72721;BME280;60835;50.974;10.322;2022-09-09T07:03:55;97807.06;;;16.94;100.00
72721;BME280;60835;50.974;10.322;2022-09-09T07:06:27;97805.03;;;16.96;100.00
72721;BME280;60835;50.974;10.322;2022-09-09T07:08:55;97796.16;;;17.02;100.00
72721;BME280;60835;50.974;10.322;2022-09-09T07:11:24;97796.41;;;16.81;100.00
72721;BME280;60835;50.974;10.322;2022-09-09T07:13:53;97808.94;;;16.87;100.00
72721;BME280;60835;50.974;10.322;2022-09-09T07:16:21;97803.81;;;17.50;100.00
72721;BME280;60835;50.974;10.322;2022-09-09T07:18:52;97852.47;;;17.72;100.00
72721;BME280;60835;50.974;10.322;2022-09-09T07:21:19;97885.19;;;18.11;100.00
72721;BME280;60835;50.974;10.322;2022-09-09T07:23:46;97917.34;;;18.49;100.00
72721;BME280;60835;50.974;10.322;2022-09-09T07:26:16;97958.53;;;19.54;100.00
72721;BME280;60835;50.974;10.322;2022-09-09T07:28:42;97998.09;;;18.84;100.00
72721;BME280;60835;50.974;10.322;2022-09-09T07:31:17;98028.50;;;18.71;100.00
72721;BME280;60835;50.974;10.322;2022-09-09T07:33:44;98027.88;;;19.25;100.00
72721;BME280;60835;50.974;10.322;2022-09-09T07:38:51;98063.22;;;19.72;100.00
72721;BME280;60835;50.974;10.322;2022-09-09T07:41:27;98135.84;;;20.20;100.00
72721;BME280;60835;50.974;10.322;2022-09-09T07:43:54;98091.13;;;20.07;100.00
72721;BME280;60835;50.974;10.322;2022-09-09T07:46:23;98113.06;;;19.61;100.00
72721;BME280;60835;50.974;10.322;2022-09-09T07:48:54;98129.19;;;19.55;100.00
72721;BME280;60835;50.974;10.322;2022-09-09T07:51:28;98096.94;;;19.61;100.00
72721;BME280;60835;50.974;10.322;2022-09-09T07:54:01;98158.38;;;20.19;100.00
72721;BME280;60835;50.974;10.322;2022-09-09T07:56:31;98200.91;;;20.83;100.00
72721;BME280;60835;50.974;10.322;2022-09-09T07:58:59;98189.25;;;21.07;100.00
72721;BME280;60835;50.974;10.322;2022-09-09T08:03:59;98240.94;;;21.09;100.00
72721;BME280;60835;50.974;10.322;2022-09-09T08:06:32;98228.53;;;20.72;100.00
72721;BME280;60835;50.974;10.322;2022-09-09T08:08:59;98181.09;;;20.95;100.00
72721;BME280;60835;50.974;10.322;2022-09-09T08:11:28;98174.63;;;20.30;100.00
72721;BME280;60835;50.974;10.322;2022-09-09T08:13:55;98197.81;;;20.18;100.00
72721;BME280;60835;50.974;10.322;2022-09-09T08:16:30;98191.47;;;20.74;100.00
72721;BME280;60835;50.974;10.322;2022-09-09T08:18:57;98169.16;;;20.12;100.00
72721;BME280;60835;50.974;10.322;2022-09-09T08:21:28;98225.53;;;21.75;100.00
72721;BME280;60835;50.974;10.322;2022-09-09T08:23:57;98230.66;;;21.36;100.00
72721;BME280;60835;50.974;10.322;2022-09-09T08:26:26;98212.13;;;21.87;100.00
72721;BME280;60835;50.974;10.322;2022-09-09T08:28:55;98240.31;;;20.03;100.00
72721;BME280;60835;50.974;10.322;2022-09-09T08:31:25;98149.97;;;19.90;100.00
72721;BME280;60835;50.974;10.322;2022-09-09T08:33:52;98163.91;;;19.99;100.00
72721;BME280;60835;50.974;10.322;2022-09-09T08:36:21;98180.00;;;19.50;100.00
72721;BME280;60835;50.974;10.322;2022-09-09T08:38:49;98147.09;;;19.29;100.00
72721;BME280;60835;50.974;10.322;2022-09-09T08:46:49;98202.31;;;20.49;100.00
72721;BME280;60835;50.974;10.322;2022-09-09T08:49:30;98278.72;;;21.32;100.00
72721;BME280;60835;50.974;10.322;2022-09-09T08:52:04;98277.84;;;21.02;100.00
72721;BME280;60835;50.974;10.322;2022-09-09T08:54:36;98245.25;;;20.92;100.00
72721;BME280;60835;50.974;10.322;2022-09-09T08:57:24;98262.69;;;21.26;100.00
72721;BME280;60835;50.974;10.322;2022-09-09T08:59:55;98290.25;;;21.69;100.00
72721;BME280;60835;50.974;10.322;2022-09-09T09:02:36;98250.56;;;20.62;100.00
72721;BME280;60835;50.974;10.322;2022-09-09T09:05:24;98270.38;;;21.04;100.00
72721;BME280;60835;50.974;10.322;2022-09-09T09:10:51;98200.53;;;19.93;100.00
72721;BME280;60835;50.974;10.322;2022-09-09T09:18:55;98173.72;;;19.62;100.00
72721;BME280;60835;50.974;10.322;2022-09-09T09:21:43;98201.38;;;20.12;100.00
72721;BME280;60835;50.974;10.322;2022-09-09T09:24:18;98199.34;;;20.57;100.00
72721;BME280;60835;50.974;10.322;2022-09-09T09:26:47;98256.44;;;20.52;100.00
72721;BME280;60835;50.974;10.322;2022-09-09T09:29:16;98180.22;;;20.65;100.00
72721;BME280;60835;50.974;10.322;2022-09-09T09:31:47;98220.25;;;19.81;100.00
72721;BME280;60835;50.974;10.322;2022-09-09T09:34:15;98158.78;;;19.48;100.00
72721;BME280;60835;50.974;10.322;2022-09-09T09:36:43;98197.91;;;19.87;100.00
72721;BME280;60835;50.974;10.322;2022-09-09T09:39:29;98192.28;;;20.13;100.00
72721;BME280;60835;50.974;10.322;2022-09-09T09:42:17;98210.53;;;20.54;100.00
72721;BME280;60835;50.974;10.322;2022-09-09T09:44:48;98189.94;;;19.74;100.00
72721;BME280;60835;50.974;10.322;2022-09-09T09:47:21;98174.53;;;19.63;100.00
72721;BME280;60835;50.974;10.322;2022-09-09T09:49:55;98170.28;;;20.23;100.00
72721;BME280;60835;50.974;10.322;2022-09-09T09:52:27;98251.84;;;20.96;100.00
72721;BME280;60835;50.974;10.322;2022-09-09T09:54:56;98273.34;;;21.32;100.00
72721;BME280;60835;50.974;10.322;2022-09-09T09:57:26;98270.91;;;21.60;100.00
72721;BME280;60835;50.974;10.322;2022-09-09T10:00:16;98368.94;;;23.07;100.00
72721;BME280;60835;50.974;10.322;2022-09-09T10:02:44;98356.63;;;22.23;100.00
72721;BME280;60835;50.974;10.322;2022-09-09T10:05:20;98282.91;;;20.92;100.00
72721;BME280;60835;50.974;10.322;2022-09-09T10:08:13;98324.75;;;22.20;100.00
72721;BME280;60835;50.974;10.322;2022-09-09T10:13:38;98341.00;;;21.83;100.00
72721;BME280;60835;50.974;10.322;2022-09-09T10:19:03;98387.00;;;23.41;100.00
72721;BME280;60835;50.974;10.322;2022-09-09T10:21:56;98407.66;;;24.55;100.00
72721;BME280;60835;50.974;10.322;2022-09-09T10:24:49;98432.38;;;23.79;100.00
72721;BME280;60835;50.974;10.322;2022-09-09T10:30:50;98434.09;;;23.96;100.00
72721;BME280;60835;50.974;10.322;2022-09-09T10:33:31;98451.00;;;24.60;100.00
72721;BME280;60835;50.974;10.322;2022-09-09T10:38:53;98427.88;;;22.27;100.00
72721;BME280;60835;50.974;10.322;2022-09-09T10:41:40;98454.69;;;22.81;100.00
72721;BME280;60835;50.974;10.322;2022-09-09T10:47:26;98419.84;;;22.68;100.00
72721;BME280;60835;50.974;10.322;2022-09-09T10:50:18;98418.69;;;22.87;100.00
72721;BME280;60835;50.974;10.322;2022-09-09T10:55:45;98457.25;;;23.92;100.00
72721;BME280;60835;50.974;10.322;2022-09-09T10:58:22;98446.63;;;23.28;100.00
72721;BME280;60835;50.974;10.322;2022-09-09T11:00:55;98428.44;;;22.47;100.00
72721;BME280;60835;50.974;10.322;2022-09-09T11:03:26;98435.84;;;23.51;100.00
72721;BME280;60835;50.974;10.322;2022-09-09T11:06:05;98449.91;;;23.64;100.00
72721;BME280;60835;50.974;10.322;2022-09-09T11:08:36;98430.72;;;21.84;100.00
72721;BME280;60835;50.974;10.322;2022-09-09T11:14:19;98436.41;;;23.18;100.00
72721;BME280;60835;50.974;10.322;2022-09-09T11:19:30;98469.91;;;24.15;100.00
72721;BME280;60835;50.974;10.322;2022-09-09T11:24:52;98486.63;;;25.85;100.00
72721;BME280;60835;50.974;10.322;2022-09-09T11:27:26;98465.41;;;25.60;100.00
72721;BME280;60835;50.974;10.322;2022-09-09T11:30:22;98473.31;;;25.83;100.00
72721;BME280;60835;50.974;10.322;2022-09-09T11:33:26;98481.63;;;25.98;100.00
72721;BME280;60835;50.974;10.322;2022-09-09T11:36:19;98482.88;;;27.41;100.00
72721;BME280;60835;50.974;10.322;2022-09-09T11:38:56;98518.28;;;28.55;97.23
72721;BME280;60835;50.974;10.322;2022-09-09T11:41:33;98520.19;;;26.44;96.93
72721;BME280;60835;50.974;10.322;2022-09-09T11:44:16;98519.31;;;24.67;100.00
72721;BME280;60835;50.974;10.322;2022-09-09T11:46:45;98502.50;;;25.98;100.00
72721;BME280;60835;50.974;10.322;2022-09-09T11:49:38;98466.44;;;25.76;100.00
72721;BME280;60835;50.974;10.322;2022-09-09T11:54:49;98498.41;;;23.83;100.00
72721;BME280;60835;50.974;10.322;2022-09-09T11:57:35;98429.16;;;24.33;100.00
72721;BME280;60835;50.974;10.322;2022-09-09T12:00:03;98469.16;;;23.68;100.00
72721;BME280;60835;50.974;10.322;2022-09-09T12:02:30;98465.41;;;23.23;100.00
72721;BME280;60835;50.974;10.322;2022-09-09T12:05:06;98473.25;;;23.36;100.00
72721;BME280;60835;50.974;10.322;2022-09-09T12:07:55;98464.84;;;22.68;100.00
72721;BME280;60835;50.974;10.322;2022-09-09T12:10:39;98460.38;;;23.38;100.00
72721;BME280;60835;50.974;10.322;2022-09-09T12:13:20;98455.50;;;22.93;100.00
72721;BME280;60835;50.974;10.322;2022-09-09T12:15:56;98452.25;;;22.62;100.00
72721;BME280;60835;50.974;10.322;2022-09-09T12:18:33;98438.13;;;22.48;100.00
72721;BME280;60835;50.974;10.322;2022-09-09T12:21:18;98437.63;;;22.69;100.00
72721;BME280;60835;50.974;10.322;2022-09-09T12:23:55;98440.53;;;23.44;100.00
72721;BME280;60835;50.974;10.322;2022-09-09T12:26:30;98441.00;;;24.15;100.00
72721;BME280;60835;50.974;10.322;2022-09-09T12:29:24;98474.47;;;24.71;100.00
72721;BME280;60835;50.974;10.322;2022-09-09T12:32:02;98462.59;;;23.64;100.00
72721;BME280;60835;50.974;10.322;2022-09-09T12:42:50;98481.84;;;22.38;100.00
72721;BME280;60835;50.974;10.322;2022-09-09T12:45:22;98471.56;;;22.47;100.00
72721;BME280;60835;50.974;10.322;2022-09-09T12:47:53;98480.47;;;23.53;100.00
72721;BME280;60835;50.974;10.322;2022-09-09T12:53:00;98486.97;;;22.99;100.00
72721;BME280;60835;50.974;10.322;2022-09-09T12:55:30;98474.28;;;22.88;100.00
72721;BME280;60835;50.974;10.322;2022-09-09T12:58:00;98460.13;;;22.04;100.00
72721;BME280;60835;50.974;10.322;2022-09-09T13:00:31;98462.06;;;21.78;100.00
72721;BME280;60835;50.974;10.322;2022-09-09T13:03:03;98457.56;;;22.09;100.00
72721;BME280;60835;50.974;10.322;2022-09-09T13:05:37;98446.94;;;21.59;100.00
72721;BME280;60835;50.974;10.322;2022-09-09T13:08:08;98448.13;;;22.48;100.00
72721;BME280;60835;50.974;10.322;2022-09-09T13:10:57;98461.69;;;22.41;100.00
72721;BME280;60835;50.974;10.322;2022-09-09T13:13:40;98454.50;;;21.87;100.00
72721;BME280;60835;50.974;10.322;2022-09-09T13:16:20;98455.72;;;22.80;100.00
72721;BME280;60835;50.974;10.322;2022-09-09T13:18:47;98480.41;;;24.40;100.00
72721;BME280;60835;50.974;10.322;2022-09-09T13:21:14;98486.09;;;25.16;100.00
72721;BME280;60835;50.974;10.322;2022-09-09T13:23:41;98506.34;;;23.08;100.00
72721;BME280;60835;50.974;10.322;2022-09-09T13:26:26;98509.63;;;23.10;100.00
72721;BME280;60835;50.974;10.322;2022-09-09T13:28:54;98506.59;;;22.47;100.00
72721;BME280;60835;50.974;10.322;2022-09-09T13:31:32;98501.56;;;22.21;100.00
72721;BME280;60835;50.974;10.322;2022-09-09T13:34:31;98488.59;;;22.89;100.00
72721;BME280;60835;50.974;10.322;2022-09-09T13:37:00;98463.72;;;22.87;100.00
72721;BME280;60835;50.974;10.322;2022-09-09T13:39:29;98455.84;;;22.14;100.00
72721;BME280;60835;50.974;10.322;2022-09-09T13:41:56;98446.22;;;22.78;100.00
72721;BME280;60835;50.974;10.322;2022-09-09T13:44:26;98467.31;;;22.69;100.00
72721;BME280;60835;50.974;10.322;2022-09-09T13:47:21;98476.22;;;21.92;100.00
72721;BME280;60835;50.974;10.322;2022-09-09T13:49:49;98453.91;;;22.33;100.00
72721;BME280;60835;50.974;10.322;2022-09-09T13:52:17;98467.84;;;22.30;100.00
72721;BME280;60835;50.974;10.322;2022-09-09T13:54:49;98469.91;;;22.46;100.00
72721;BME280;60835;50.974;10.322;2022-09-09T13:57:24;98460.38;;;22.14;100.00
72721;BME280;60835;50.974;10.322;2022-09-09T13:59:53;98470.00;;;22.10;100.00
72721;BME280;60835;50.974;10.322;2022-09-09T14:02:36;98456.72;;;22.08;100.00
72721;BME280;60835;50.974;10.322;2022-09-09T14:05:05;98462.38;;;22.36;100.00
72721;BME280;60835;50.974;10.322;2022-09-09T14:07:32;98465.22;;;22.53;100.00
72721;BME280;60835;50.974;10.322;2022-09-09T14:09:58;98463.22;;;22.78;100.00
72721;BME280;60835;50.974;10.322;2022-09-09T14:12:26;98476.22;;;22.70;100.00
72721;BME280;60835;50.974;10.322;2022-09-09T14:14:53;98462.19;;;22.79;100.00
72721;BME280;60835;50.974;10.322;2022-09-09T14:17:19;98459.38;;;22.56;100.00
72721;BME280;60835;50.974;10.322;2022-09-09T14:19:46;98449.72;;;22.37;100.00
72721;BME280;60835;50.974;10.322;2022-09-09T14:22:12;98448.91;;;22.36;100.00
72721;BME280;60835;50.974;10.322;2022-09-09T14:24:39;98470.34;;;22.43;100.00
72721;BME280;60835;50.974;10.322;2022-09-09T14:27:05;98448.13;;;21.63;100.00
72721;BME280;60835;50.974;10.322;2022-09-09T14:29:32;98425.09;;;21.85;100.00
72721;BME280;60835;50.974;10.322;2022-09-09T14:31:59;98414.75;;;21.82;100.00
72721;BME280;60835;50.974;10.322;2022-09-09T14:34:27;98418.69;;;22.16;100.00
72721;BME280;60835;50.974;10.322;2022-09-09T14:36:53;98420.91;;;22.49;100.00
72721;BME280;60835;50.974;10.322;2022-09-09T14:39:20;98422.84;;;22.60;100.00
72721;BME280;60835;50.974;10.322;2022-09-09T14:41:46;98396.97;;;21.27;100.00
72721;BME280;60835;50.974;10.322;2022-09-09T14:44:13;98385.91;;;21.17;100.00
72721;BME280;60835;50.974;10.322;2022-09-09T14:46:39;98355.59;;;20.60;100.00
72721;BME280;60835;50.974;10.322;2022-09-09T14:49:06;98335.31;;;20.64;100.00
72721;BME280;60835;50.974;10.322;2022-09-09T14:51:32;98305.97;;;20.81;100.00
72721;BME280;60835;50.974;10.322;2022-09-09T14:53:59;98284.97;;;20.72;100.00
72721;BME280;60835;50.974;10.322;2022-09-09T14:56:31;98294.28;;;20.94;100.00